Time;durP1;ratioP1;P1;durP2;ratioP2;P2;SDS_P1;SDS_P2;PMS_P1;PMS_P2;Temp;Humidity;BMP_temperature;BMP_pressure;BME280_temperature;BME280_humidity;BME280_pressure;Samples;Min_cycle;Max_cycle;Signal;HPM_P1;HPM_P2
2023/04/01 00:02:02;;;;;;;;;;;;;;;20.56;51.85;99163.72;4954509;28;2720;-64
2023/04/01 00:04:28;;;;;;;;;;;;;;;20.55;51.97;99165.88;4962818;28;2707;-64
2023/04/01 00:06:55;;;;;;;;;;;;;;;20.55;51.75;99162.25;4960769;28;2684;-64
2023/04/01 00:09:21;;;;;;;;;;;;;;;20.53;51.84;99165.13;4963358;28;2647;-64
2023/04/01 00:11:48;;;;;;;;;;;;;;;20.51;52.06;99166.53;4959068;28;2679;-64
2023/04/01 00:14:14;;;;;;;;;;;;;;;20.51;51.97;99166.53;4963031;28;3056;-64
2023/04/01 00:16:41;;;;;;;;;;;;;;;20.52;52.03;99170.13;4957163;28;2477;-63
2023/04/01 00:19:07;;;;;;;;;;;;;;;20.53;51.76;99168.00;4963365;28;2631;-64
2023/04/01 00:21:34;;;;;;;;;;;;;;;20.53;51.91;99173.75;4964977;28;2364;-64
2023/04/01 00:24:00;;;;;;;;;;;;;;;20.51;51.78;99165.81;4959189;28;2599;-64
2023/04/01 00:26:27;;;;;;;;;;;;;;;20.52;51.87;99167.25;4964205;28;2643;-64
2023/04/01 00:28:53;;;;;;;;;;;;;;;20.51;51.93;99166.53;4954417;28;2842;-64
2023/04/01 00:31:20;;;;;;;;;;;;;;;20.50;52.00;99176.59;4963685;28;2488;-64
2023/04/01 00:33:46;;;;;;;;;;;;;;;20.50;51.86;99170.09;4965338;28;2480;-63
2023/04/01 00:36:13;;;;;;;;;;;;;;;20.49;51.88;99169.38;4965747;28;2690;-63
2023/04/01 00:38:41;;;;;;;;;;;;;;;20.50;51.87;99176.59;4942464;28;2738;-63
2023/04/01 00:41:07;;;;;;;;;;;;;;;20.50;51.69;99170.09;4967798;28;2375;-62
2023/04/01 00:43:34;;;;;;;;;;;;;;;20.49;51.79;99166.50;4946454;28;2620;-63
2023/04/01 00:46:00;;;;;;;;;;;;;;;20.49;51.72;99163.63;4968787;28;2331;-63
2023/04/01 00:48:28;;;;;;;;;;;;;;;20.49;51.90;99166.50;4950030;28;2823;-63
2023/04/01 00:50:56;;;;;;;;;;;;;;;20.48;51.90;99162.16;4967563;28;2547;-63
2023/04/01 00:53:23;;;;;;;;;;;;;;;20.48;51.89;99167.19;4950168;28;2714;-63
2023/04/01 00:55:50;;;;;;;;;;;;;;;20.48;51.83;99173.66;4960827;28;3024;-63
2023/04/01 00:58:17;;;;;;;;;;;;;;;20.47;51.73;99168.59;4969750;28;2461;-63
2023/04/01 01:00:43;;;;;;;;;;;;;;;20.47;51.72;99169.31;4934397;28;2874;-63
2023/04/01 01:03:10;;;;;;;;;;;;;;;20.46;51.66;99164.28;4965184;28;2643;-63
2023/04/01 01:05:46;;;;;;;;;;;;;;;20.46;51.75;99165.00;4962844;28;2639;-63
2023/04/01 01:08:22;;;;;;;;;;;;;;;20.45;51.73;99169.28;4958860;28;2663;-64
2023/04/01 01:10:49;;;;;;;;;;;;;;;20.45;51.72;99163.53;4950377;28;2685;-64
2023/04/01 01:13:17;;;;;;;;;;;;;;;20.44;51.83;99162.09;4949022;28;2737;-64
2023/04/01 01:16:02;;;;;;;;;;;;;;;20.43;51.83;99166.38;4965502;28;2715;-64
2023/04/01 01:18:33;;;;;;;;;;;;;;;20.44;51.78;99176.47;4964180;28;2659;-64
2023/04/01 01:21:06;;;;;;;;;;;;;;;20.43;51.70;99177.91;4964486;28;2973;-64
2023/04/01 01:23:51;;;;;;;;;;;;;;;20.43;51.76;99177.91;4963205;28;2660;-64
2023/04/01 01:26:36;;;;;;;;;;;;;;;20.43;51.47;99172.13;4967635;28;2544;-64
2023/04/01 01:29:30;;;;;;;;;;;;;;;20.43;51.85;99171.38;4944800;28;2902;-64
2023/04/01 01:31:59;;;;;;;;;;;;;;;20.42;51.72;99169.94;4934606;28;2651;-64
2023/04/01 01:34:28;;;;;;;;;;;;;;;20.39;51.87;99172.06;4962836;28;2366;-64
2023/04/01 01:36:56;;;;;;;;;;;;;;;20.40;51.61;99182.13;4959945;28;2612;-64
2023/04/01 01:39:26;;;;;;;;;;;;;;;20.40;51.75;99179.25;4942787;28;2574;-64
2023/04/01 01:41:52;;;;;;;;;;;;;;;20.41;51.83;99185.72;4959866;28;2636;-63
2023/04/01 01:44:19;;;;;;;;;;;;;;;20.39;51.76;99183.56;4944456;28;2694;-64
2023/04/01 01:46:45;;;;;;;;;;;;;;;20.39;51.86;99182.84;4965812;28;2560;-64
2023/04/01 01:49:12;;;;;;;;;;;;;;;20.38;51.71;99187.84;4946499;28;2655;-64
2023/04/01 01:51:39;;;;;;;;;;;;;;;20.38;51.73;99179.22;4941784;28;2657;-64
2023/04/01 01:54:12;;;;;;;;;;;;;;;20.37;51.70;99180.63;4939031;28;2660;-63
2023/04/01 01:56:38;;;;;;;;;;;;;;;20.37;51.83;99174.88;4955437;28;2659;-64
2023/04/01 01:59:06;;;;;;;;;;;;;;;20.35;51.90;99180.59;4924976;28;2743;-64
2023/04/01 02:01:32;;;;;;;;;;;;;;;20.35;51.81;99180.59;4921420;28;2629;-64
2023/04/01 02:04:06;;;;;;;;;;;;;;;20.35;51.85;99177.72;4948236;28;2645;-64
2023/04/01 02:06:34;;;;;;;;;;;;;;;20.36;51.92;99178.44;4940669;28;2553;-64
2023/04/01 02:09:02;;;;;;;;;;;;;;;20.34;51.81;99181.28;4947912;28;2631;-64
2023/04/01 02:11:33;;;;;;;;;;;;;;;20.34;51.89;99187.78;4961385;28;2620;-63
2023/04/01 02:14:05;;;;;;;;;;;;;;;20.34;51.74;99187.78;4944196;28;2672;-64
2023/04/01 02:16:36;;;;;;;;;;;;;;;20.33;51.75;99185.59;4943531;28;2592;-63
2023/04/01 02:19:02;;;;;;;;;;;;;;;20.33;51.97;99186.31;4950743;28;2628;-63
2023/04/01 02:21:30;;;;;;;;;;;;;;;20.32;51.72;99187.72;4935544;28;2632;-64
2023/04/01 02:23:56;;;;;;;;;;;;;;;20.32;51.76;99187.72;4921962;28;2677;-64
2023/04/01 02:26:23;;;;;;;;;;;;;;;20.32;51.89;99184.84;4964024;28;2686;-64
2023/04/01 02:28:49;;;;;;;;;;;;;;;20.32;51.76;99193.47;4947820;28;2459;-63
2023/04/01 02:31:16;;;;;;;;;;;;;;;20.32;51.91;99187.72;4964990;28;2279;-63
2023/04/01 02:33:43;;;;;;;;;;;;;;;20.30;51.75;99190.56;4961169;28;2641;-63
2023/04/01 02:36:10;;;;;;;;;;;;;;;20.31;51.68;99189.13;4913130;28;968051;-63
2023/04/01 02:38:37;;;;;;;;;;;;;;;20.30;51.88;99193.44;4942751;28;3999;-63
2023/04/01 02:41:05;;;;;;;;;;;;;;;20.31;51.65;99194.88;4960003;28;2635;-63
2023/04/01 02:43:31;;;;;;;;;;;;;;;20.32;51.76;99196.34;4964499;28;2613;-64
2023/04/01 02:45:57;;;;;;;;;;;;;;;20.33;51.52;99194.94;4939329;28;2572;-63
2023/04/01 02:48:24;;;;;;;;;;;;;;;20.35;51.40;99194.25;4965259;28;2547;-64
2023/04/01 02:50:50;;;;;;;;;;;;;;;20.37;51.30;99197.88;4962686;28;2628;-64
2023/04/01 02:53:16;;;;;;;;;;;;;;;20.39;51.44;99200.81;4960319;28;2564;-63
2023/04/01 02:55:44;;;;;;;;;;;;;;;20.42;51.41;99205.16;4959132;28;2579;-64
2023/04/01 02:58:11;;;;;;;;;;;;;;;20.42;51.59;99201.56;4959341;28;2621;-64
2023/04/01 03:00:37;;;;;;;;;;;;;;;20.43;51.81;99205.88;4947015;28;2619;-64
2023/04/01 03:03:03;;;;;;;;;;;;;;;20.42;51.91;99210.91;4960233;28;2737;-64
2023/04/01 03:05:30;;;;;;;;;;;;;;;20.42;51.69;99210.91;4964407;28;2727;-63
2023/04/01 03:07:57;;;;;;;;;;;;;;;20.43;51.63;99215.25;4963202;28;2634;-63
2023/04/01 03:10:23;;;;;;;;;;;;;;;20.42;51.65;99216.66;4962112;28;2559;-63
2023/04/01 03:12:50;;;;;;;;;;;;;;;20.43;51.66;99208.75;4959796;28;2607;-64
2023/04/01 03:15:16;;;;;;;;;;;;;;;20.41;51.68;99203.72;4956951;28;2374;-63
2023/04/01 03:17:42;;;;;;;;;;;;;;;20.40;51.73;99219.50;4962709;28;2866;-63
2023/04/01 03:20:10;;;;;;;;;;;;;;;20.41;51.62;99215.22;4946684;28;2742;-63
2023/04/01 03:22:36;;;;;;;;;;;;;;;20.41;51.75;99220.97;4959007;28;2716;-63
2023/04/01 03:25:05;;;;;;;;;;;;;;;20.42;51.72;99210.91;4947862;28;3000;-63
2023/04/01 03:27:31;;;;;;;;;;;;;;;20.43;51.89;99212.38;4940719;28;2491;-63
2023/04/01 03:29:57;;;;;;;;;;;;;;;20.44;51.70;99225.34;4940373;28;2575;-65
2023/04/01 03:32:27;;;;;;;;;;;;;;;20.46;51.78;99224.66;4956760;28;2642;-64
2023/04/01 03:34:53;;;;;;;;;;;;;;;20.47;51.89;99226.09;4963436;28;2829;-64
2023/04/01 03:37:20;;;;;;;;;;;;;;;20.46;51.78;99222.50;4964151;28;2412;-64
2023/04/01 03:39:46;;;;;;;;;;;;;;;20.47;52.13;99217.47;4963612;28;2341;-64
2023/04/01 03:42:13;;;;;;;;;;;;;;;20.47;52.04;99226.09;4959555;28;2556;-64
2023/04/01 03:44:39;;;;;;;;;;;;;;;20.47;52.24;99229.69;4936098;28;2659;-64
2023/04/01 03:47:09;;;;;;;;;;;;;;;20.47;52.07;99232.56;4940868;28;2870;-64
2023/04/01 03:49:36;;;;;;;;;;;;;;;20.47;52.13;99234.72;4959770;28;2373;-64
2023/04/01 03:52:02;;;;;;;;;;;;;;;20.46;52.16;99228.25;4957440;28;2643;-64
2023/04/01 03:54:29;;;;;;;;;;;;;;;20.46;52.26;99234.00;4962154;28;2639;-64
2023/04/01 03:56:57;;;;;;;;;;;;;;;20.46;52.24;99236.88;4943850;28;2639;-64
2023/04/01 03:59:24;;;;;;;;;;;;;;;20.45;52.06;99235.41;4942032;28;2668;-64
2023/04/01 04:01:50;;;;;;;;;;;;;;;20.46;52.10;99239.03;4944271;28;2734;-64
2023/04/01 04:04:17;;;;;;;;;;;;;;;20.46;52.08;99242.63;4947137;28;2636;-64
2023/04/01 04:06:44;;;;;;;;;;;;;;;20.45;51.73;99246.19;4952040;28;2634;-64
2023/04/01 04:09:10;;;;;;;;;;;;;;;20.44;51.80;99239.72;4962225;28;2820;-64
2023/04/01 04:11:37;;;;;;;;;;;;;;;20.45;51.72;99258.41;4964240;28;2866;-64
2023/04/01 04:14:03;;;;;;;;;;;;;;;20.43;51.66;99255.50;4946902;28;2615;-64
2023/04/01 04:16:30;;;;;;;;;;;;;;;20.42;51.55;99256.91;4961991;28;2610;-64
2023/04/01 04:18:59;;;;;;;;;;;;;;;20.41;51.69;99255.47;4947559;28;2655;-64
2023/04/01 04:21:26;;;;;;;;;;;;;;;20.41;51.87;99255.47;4962977;28;2627;-63
2023/04/01 04:23:52;;;;;;;;;;;;;;;20.40;51.61;99259.75;4942335;28;2687;-64
2023/04/01 04:26:19;;;;;;;;;;;;;;;20.40;51.84;99259.75;4963937;28;2469;-64
2023/04/01 04:28:53;;;;;;;;;;;;;;;20.39;51.60;99254.69;4939286;28;2578;-64
2023/04/01 04:31:20;;;;;;;;;;;;;;;20.40;51.73;99259.03;4929652;28;2700;-64
2023/04/01 04:33:48;;;;;;;;;;;;;;;20.39;51.60;99264.03;4964382;28;2157;-64
2023/04/01 04:36:14;;;;;;;;;;;;;;;20.39;51.87;99263.31;4964373;28;2485;-64
2023/04/01 04:38:42;;;;;;;;;;;;;;;20.39;51.74;99258.28;4937690;28;2650;-64
2023/04/01 04:41:09;;;;;;;;;;;;;;;20.38;51.56;99256.81;4962234;28;2945;-64
2023/04/01 04:43:36;;;;;;;;;;;;;;;20.38;51.68;99267.59;4958462;28;2658;-63
2023/04/01 04:46:06;;;;;;;;;;;;;;;20.37;51.69;99264.00;4941638;28;2549;-63
2023/04/01 04:48:33;;;;;;;;;;;;;;;20.37;51.64;99261.13;4946494;28;2501;-63
2023/04/01 04:50:59;;;;;;;;;;;;;;;20.35;51.91;99269.72;4957212;28;2639;-63
2023/04/01 04:53:25;;;;;;;;;;;;;;;20.35;51.66;99275.44;4963376;28;2203;-63
2023/04/01 04:55:52;;;;;;;;;;;;;;;20.35;51.74;99272.59;4947466;28;2514;-63
2023/04/01 04:58:37;;;;;;;;;;;;;;;20.34;51.82;99267.50;4945779;28;2835;-64
2023/04/01 05:01:11;;;;;;;;;;;;;;;20.34;51.77;99284.75;4942273;28;2759;-64
2023/04/01 05:03:38;;;;;;;;;;;;;;;20.34;51.89;99284.75;4960186;28;2751;-63
2023/04/01 05:06:05;;;;;;;;;;;;;;;20.33;51.78;99284.03;4958491;28;2632;-63
2023/04/01 05:08:32;;;;;;;;;;;;;;;20.33;51.72;99277.56;4953265;28;2699;-63
2023/04/01 05:10:59;;;;;;;;;;;;;;;20.32;51.71;99285.47;4941575;28;2628;-63
2023/04/01 05:13:25;;;;;;;;;;;;;;;20.32;51.68;99285.47;4944059;28;2672;-63
2023/04/01 05:15:52;;;;;;;;;;;;;;;20.34;51.51;99285.50;4956595;28;2915;-63
2023/04/01 05:18:18;;;;;;;;;;;;;;;20.35;51.75;99292.69;4964457;28;2722;-63
2023/04/01 05:20:48;;;;;;;;;;;;;;;20.39;51.66;99284.16;4961067;28;2641;-63
2023/04/01 05:23:14;;;;;;;;;;;;;;;20.41;51.63;99292.09;4949239;28;2453;-63
2023/04/01 05:25:41;;;;;;;;;;;;;;;20.41;51.84;99292.84;4953099;28;2802;-63
2023/04/01 05:28:07;;;;;;;;;;;;;;;20.42;51.90;99288.53;4946377;28;2485;-63
2023/04/01 05:30:34;;;;;;;;;;;;;;;20.43;51.82;99292.88;4961383;28;2626;-63
2023/04/01 05:33:09;;;;;;;;;;;;;;;20.43;52.01;99292.88;4941772;28;2878;-63
2023/04/01 05:35:35;;;;;;;;;;;;;;;20.42;51.79;99294.28;4961974;28;2729;-63
2023/04/01 05:38:02;;;;;;;;;;;;;;;20.43;51.82;99301.50;4946411;28;2499;-63
2023/04/01 05:40:29;;;;;;;;;;;;;;;20.43;51.92;99303.63;4947525;28;2802;-63
2023/04/01 05:42:55;;;;;;;;;;;;;;;20.42;51.91;99300.03;4940758;28;2616;-63
2023/04/01 05:45:21;;;;;;;;;;;;;;;20.42;52.15;99302.91;4938882;28;2631;-63
2023/04/01 05:48:26;;;;;;;;;;;;;;;20.42;51.90;99307.94;4961022;28;2686;-63
2023/04/01 05:50:53;;;;;;;;;;;;;;;20.42;52.00;99316.56;4962364;28;2635;-63
2023/04/01 05:53:19;;;;;;;;;;;;;;;20.41;52.07;99318.72;4954273;28;2759;-63
2023/04/01 05:55:46;;;;;;;;;;;;;;;20.41;52.05;99312.22;4945469;28;3309;-63
2023/04/01 05:58:13;;;;;;;;;;;;;;;20.39;51.96;99315.78;4944456;28;3219;-65
2023/04/01 06:00:42;;;;;;;;;;;;;;;20.46;51.83;99317.38;4949245;28;2766;-63
2023/04/01 06:03:08;;;;;;;;;;;;;;;20.47;51.58;99324.56;4949007;28;2699;-62
2023/04/01 06:05:37;;;;;;;;;;;;;;;20.48;51.47;99323.19;4959915;28;2718;-62
2023/04/01 06:08:11;;;;;;;;;;;;;;;20.63;51.73;99323.50;4949428;28;2737;-68
2023/04/01 06:10:48;;;;;;;;;;;;;;;20.68;51.59;99325.03;4938633;28;2643;-64
2023/04/01 06:13:34;;;;;;;;;;;;;;;20.63;51.65;99332.13;4957841;28;2688;-64
2023/04/01 06:16:04;;;;;;;;;;;;;;;20.60;51.86;99334.22;4940453;28;2620;-64
2023/04/01 06:18:50;;;;;;;;;;;;;;;20.60;51.77;99324.88;4963278;28;3153;-64
2023/04/01 06:21:52;;;;;;;;;;;;;;;20.59;51.89;99340.66;4962281;28;2739;-63
2023/04/01 06:24:22;;;;;;;;;;;;;;;20.57;51.70;99340.63;4934175;28;3070;-63
2023/04/01 06:26:49;;;;;;;;;;;;;;;20.57;51.83;99337.75;4958137;28;2702;-63
2023/04/01 06:29:42;;;;;;;;;;;;;;;20.59;51.67;99337.78;4956415;28;3155;-63
2023/04/01 06:32:24;;;;;;;;;;;;;;;20.61;51.94;99337.81;4940939;28;2633;-63
2023/04/01 06:35:00;;;;;;;;;;;;;;;20.64;51.69;99345.09;4941436;28;2820;-71
2023/04/01 06:37:45;;;;;;;;;;;;;;;20.62;52.13;99353.69;4927651;28;2700;-67
2023/04/01 06:40:17;;;;;;;;;;;;;;;20.58;52.17;99345.69;4963125;28;2417;-69
2023/04/01 06:42:53;;;;;;;;;;;;;;;20.57;52.17;99352.13;4943544;28;1786;-68
2023/04/01 06:45:47;;;;;;;;;;;;;;;20.56;51.97;99344.88;4964818;28;2571;-69
2023/04/01 06:49:10;;;;;;;;;;;;;;;20.54;52.25;99357.06;4952769;28;2298;-70
2023/04/01 06:51:46;;;;;;;;;;;;;;;20.55;52.04;99358.53;4965231;28;2443;-69
2023/04/01 06:54:31;;;;;;;;;;;;;;;20.56;51.94;99356.38;4964237;28;2517;-71
2023/04/01 06:57:20;;;;;;;;;;;;;;;20.47;52.10;99359.06;4961403;28;2731;-69
2023/04/01 06:59:46;;;;;;;;;;;;;;;20.51;51.86;99355.56;4946627;28;2603;-74
2023/04/01 07:02:22;;;;;;;;;;;;;;;20.49;51.91;99364.88;4946726;28;2782;-75
2023/04/01 07:04:49;;;;;;;;;;;;;;;20.52;51.73;99357.03;4935240;28;2907;-73
2023/04/01 07:07:34;;;;;;;;;;;;;;;20.48;51.79;99362.69;4944077;28;2475;-74
2023/04/01 07:10:05;;;;;;;;;;;;;;;20.41;51.62;99358.97;4954760;28;2898;-66
2023/04/01 07:12:52;;;;;;;;;;;;;;;20.58;51.59;99365.81;4949640;28;2590;-72
2023/04/01 07:15:40;;;;;;;;;;;;;;;20.63;51.66;99360.88;4957566;28;2678;-72
2023/04/01 07:18:16;;;;;;;;;;;;;;;20.63;51.74;99364.47;4925570;28;2673;-75
2023/04/01 07:20:42;;;;;;;;;;;;;;;20.61;51.98;99369.47;4936738;28;3069;-68
2023/04/01 07:23:16;;;;;;;;;;;;;;;20.65;51.70;99369.56;4946759;28;2861;-68
2023/04/01 07:26:15;;;;;;;;;;;;;;;20.66;51.85;99368.88;4957903;28;2959;-68
2023/04/01 07:29:00;;;;;;;;;;;;;;;20.66;52.04;99371.00;4945828;28;2699;-70
2023/04/01 07:31:53;;;;;;;;;;;;;;;20.70;51.48;99368.22;4960885;28;2831;-69
2023/04/01 07:34:24;;;;;;;;;;;;;;;20.71;51.99;99384.06;4936247;28;2707;-71
2023/04/01 07:36:53;;;;;;;;;;;;;;;20.71;52.11;99386.94;4947003;28;2733;-69
2023/04/01 07:39:26;;;;;;;;;;;;;;;20.71;51.99;99384.81;4940792;28;2893;-70
2023/04/01 07:42:15;;;;;;;;;;;;;;;20.72;52.22;99385.53;4947396;28;2619;-69
2023/04/01 07:44:51;;;;;;;;;;;;;;;20.72;52.31;99379.78;4930929;28;2691;-71
2023/04/01 07:47:18;;;;;;;;;;;;;;;20.71;52.14;99381.94;4949191;28;2941;-71
2023/04/01 07:49:54;;;;;;;;;;;;;;;20.73;51.94;99386.25;4961625;28;2899;-70
2023/04/01 07:52:33;;;;;;;;;;;;;;;20.74;51.62;99382.69;4940306;28;2995;-70
2023/04/01 07:55:26;;;;;;;;;;;;;;;20.75;51.77;99395.66;4965152;28;2826;-70
2023/04/01 07:57:57;;;;;;;;;;;;;;;20.74;51.62;99394.19;4930879;28;2706;-71
2023/04/01 08:00:36;;;;;;;;;;;;;;;20.75;51.92;99401.41;4935889;28;2734;-71
2023/04/01 08:03:33;;;;;;;;;;;;;;;20.76;52.31;99396.41;4933650;28;2613;-70
2023/04/01 08:06:12;;;;;;;;;;;;;;;20.77;52.43;99404.31;4918470;28;2625;-71
2023/04/01 08:08:42;;;;;;;;;;;;;;;20.72;52.64;99397.03;4930793;28;2703;-70
2023/04/01 08:12:01;;;;;;;;;;;;;;;20.06;53.08;99401.25;4955628;28;2977;-71
2023/04/01 08:14:50;;;;;;;;;;;;;;;20.29;53.39;99404.66;4935912;28;3087;-76
2023/04/01 08:17:38;;;;;;;;;;;;;;;20.63;52.56;99404.75;4948592;28;2750;-68
2023/04/01 08:20:18;;;;;;;;;;;;;;;20.76;52.48;99408.63;4929251;28;2843;-77
2023/04/01 08:22:45;;;;;;;;;;;;;;;20.14;52.51;99412.22;4915195;28;2681;-72
2023/04/01 08:25:22;;;;;;;;;;;;;;;19.47;52.96;99411.22;4933866;28;2946;-68
2023/04/01 08:27:51;;;;;;;;;;;;;;;19.09;53.65;99417.34;4934175;28;2786;-67
2023/04/01 08:30:18;;;;;;;;;;;;;;;19.31;52.79;99416.50;4937731;28;2613;-74
2023/04/01 08:33:05;;;;;;;;;;;;;;;19.88;51.80;99413.03;4940807;28;2433;-72
2023/04/01 08:35:34;;;;;;;;;;;;;;;20.26;51.47;99411.78;4937459;28;2515;-72
2023/04/01 08:38:06;;;;;;;;;;;;;;;20.42;51.79;99422.94;4944716;28;2552;-73
2023/04/01 08:40:51;;;;;;;;;;;;;;;20.48;51.86;99426.69;4939491;28;2510;-72
2023/04/01 08:43:36;;;;;;;;;;;;;;;20.53;51.80;99421.03;4965768;28;1720;-77
2023/04/01 08:46:08;;;;;;;;;;;;;;;20.26;51.84;99417.53;4939563;28;2334;-77
2023/04/01 08:48:42;;;;;;;;;;;;;;;20.13;52.09;99424.41;4948953;28;1696;-77
2023/04/01 08:51:15;;;;;;;;;;;;;;;20.12;51.90;99414.31;4935154;28;2676;-74
2023/04/01 08:53:42;;;;;;;;;;;;;;;20.07;51.82;99430.72;4948634;28;2587;-73
2023/04/01 08:56:17;;;;;;;;;;;;;;;20.02;52.18;99424.16;4949218;28;2981;-73
2023/04/01 08:58:54;;;;;;;;;;;;;;;20.06;51.91;99424.22;4921490;28;2893;-75
2023/04/01 09:01:27;;;;;;;;;;;;;;;19.97;51.70;99427.59;4949705;28;2869;-75
2023/04/01 09:03:57;;;;;;;;;;;;;;;19.93;51.62;99424.63;4967834;28;2365;-73
2023/04/01 09:06:25;;;;;;;;;;;;;;;19.96;51.48;99431.88;4961169;28;2694;-73
2023/04/01 09:09:01;;;;;;;;;;;;;;;19.96;51.52;99426.16;4930684;28;2781;-73
2023/04/01 09:11:28;;;;;;;;;;;;;;;19.94;51.58;99423.94;4966944;28;2598;-75
2023/04/01 09:14:17;;;;;;;;;;;;;;;19.97;51.39;99434.06;4968326;28;2685;-71
2023/04/01 09:17:00;;;;;;;;;;;;;;;19.90;51.39;99435.31;4948988;28;2285;-74
2023/04/01 09:19:28;;;;;;;;;;;;;;;19.69;51.34;99433.34;4950471;28;2482;-76
2023/04/01 09:22:06;;;;;;;;;;;;;;;19.73;50.86;99447.81;4943822;28;2804;-76
2023/04/01 09:24:51;;;;;;;;;;;;;;;19.69;51.06;99450.56;4933978;28;3215;-69
2023/04/01 09:27:21;;;;;;;;;;;;;;;19.89;50.56;99456.84;4950022;28;2774;-69
2023/04/01 09:30:14;;;;;;;;;;;;;;;20.07;50.07;99460.19;4968793;28;2489;-69
2023/04/01 09:32:40;;;;;;;;;;;;;;;20.24;50.09;99463.47;4926115;28;2658;-69
2023/04/01 09:35:24;;;;;;;;;;;;;;;20.33;50.15;99468.00;4964468;28;2714;-67
2023/04/01 09:37:57;;;;;;;;;;;;;;;20.40;50.15;99466.72;4965822;28;2699;-68
2023/04/01 09:40:30;;;;;;;;;;;;;;;20.45;50.24;99467.56;4949136;28;2439;-68
2023/04/01 09:43:15;;;;;;;;;;;;;;;20.45;50.12;99468.28;4951109;28;2830;-68
2023/04/01 09:45:52;;;;;;;;;;;;;;;20.48;50.09;99477.72;4950547;28;2662;-69
2023/04/01 09:48:36;;;;;;;;;;;;;;;20.47;50.25;99482.72;4951938;28;2640;-68
2023/04/01 09:51:20;;;;;;;;;;;;;;;20.50;50.27;99483.50;4945269;28;2757;-68
2023/04/01 09:53:53;;;;;;;;;;;;;;;20.51;50.58;99482.09;4941957;28;2731;-69
2023/04/01 09:56:39;;;;;;;;;;;;;;;20.51;50.36;99488.56;4948413;28;2582;-67
2023/04/01 09:59:21;;;;;;;;;;;;;;;20.54;50.57;99491.50;4936672;28;1664;-69
2023/04/01 10:02:32;;;;;;;;;;;;;;;20.56;50.54;99488.66;4953904;28;2651;-69
2023/04/01 10:05:17;;;;;;;;;;;;;;;20.53;50.62;99498.66;4961202;28;2958;-69
2023/04/01 10:07:49;;;;;;;;;;;;;;;20.54;50.88;99497.25;4949402;28;2463;-69
2023/04/01 10:10:34;;;;;;;;;;;;;;;20.56;50.71;99503.03;4950737;28;2641;-69
2023/04/01 10:13:20;;;;;;;;;;;;;;;20.54;51.01;99503.72;4946275;28;2702;-68
2023/04/01 10:15:50;;;;;;;;;;;;;;;20.56;50.97;99511.69;4946157;28;2593;-69
2023/04/01 10:18:27;;;;;;;;;;;;;;;20.59;51.06;99513.19;4944750;28;2556;-67
2023/04/01 10:21:14;;;;;;;;;;;;;;;20.60;51.03;99506.78;4927189;28;2622;-68
2023/04/01 10:24:05;;;;;;;;;;;;;;;20.60;51.20;99520.44;4965059;28;1700;-68
2023/04/01 10:26:34;;;;;;;;;;;;;;;20.58;51.55;99523.25;4928436;28;2714;-68
2023/04/01 10:29:36;;;;;;;;;;;;;;;20.43;51.44;99511.38;4936223;28;2371;-71
2023/04/01 10:32:02;;;;;;;;;;;;;;;20.50;51.24;99515.13;4948933;28;2714;-68
2023/04/01 10:34:34;;;;;;;;;;;;;;;20.58;51.24;99518.22;4960108;28;2620;-69
2023/04/01 10:37:10;;;;;;;;;;;;;;;20.57;51.32;99519.66;4947029;28;2606;-67
2023/04/01 10:40:01;;;;;;;;;;;;;;;20.63;51.16;99524.81;4933583;28;2817;-67
2023/04/01 10:42:52;;;;;;;;;;;;;;;20.66;51.30;99526.31;4945389;28;2737;-67
2023/04/01 10:45:39;;;;;;;;;;;;;;;20.20;51.31;99529.47;4966346;28;2627;-66
2023/04/01 10:48:26;;;;;;;;;;;;;;;20.12;51.23;99532.88;4962743;28;2669;-65
2023/04/01 10:51:12;;;;;;;;;;;;;;;20.28;50.93;99535.44;4957135;28;2922;-64
2023/04/01 10:54:00;;;;;;;;;;;;;;;20.44;51.02;99538.00;4938822;28;2627;-66
2023/04/01 10:56:57;;;;;;;;;;;;;;;20.57;51.23;99536.16;4947296;28;2634;-66
2023/04/01 10:59:50;;;;;;;;;;;;;;;20.59;51.06;99539.84;4946696;28;2656;-67
2023/04/01 11:02:44;;;;;;;;;;;;;;;20.60;51.10;99541.28;4957583;28;2802;-66
2023/04/01 11:05:38;;;;;;;;;;;;;;;20.60;51.21;99546.31;4965328;28;2706;-69
2023/04/01 11:08:33;;;;;;;;;;;;;;;20.63;51.16;99539.91;4950048;28;2903;-70
2023/04/01 11:11:09;;;;;;;;;;;;;;;20.63;51.39;99553.56;4963513;28;2919;-68
2023/04/01 11:13:55;;;;;;;;;;;;;;;20.60;51.31;99555.66;4923592;28;2374;-70
2023/04/01 11:16:28;;;;;;;;;;;;;;;20.58;51.29;99560.66;4946270;28;2647;-69
2023/04/01 11:19:12;;;;;;;;;;;;;;;20.36;51.09;99564.38;4948106;28;2947;-69
2023/04/01 11:21:40;;;;;;;;;;;;;;;20.39;51.37;99571.66;4945975;28;2595;-69
2023/04/01 11:24:09;;;;;;;;;;;;;;;20.41;51.41;99571.72;4946301;28;2619;-69
2023/04/01 11:26:50;;;;;;;;;;;;;;;20.42;50.93;99566.69;4944985;28;5440;-69
2023/04/01 11:29:48;;;;;;;;;;;;;;;20.40;51.35;99566.63;4940352;28;2708;-69
2023/04/01 11:32:42;;;;;;;;;;;;;;;20.46;51.07;99573.28;4960032;28;2872;-72
2023/04/01 11:35:45;;;;;;;;;;;;;;;20.50;51.08;99582.00;4940092;28;2740;-71
2023/04/01 11:38:17;;;;;;;;;;;;;;;20.56;50.96;99569.94;4907775;29;2016;-65
2023/04/01 11:40:56;;;;;;;;;;;;;;;20.55;51.15;99579.22;4936836;28;1818;-64
2023/04/01 11:43:37;;;;;;;;;;;;;;;20.57;51.04;99582.91;4944127;28;2392;-65
2023/04/01 11:46:41;;;;;;;;;;;;;;;20.58;51.20;99590.13;4960418;28;2295;-66
2023/04/01 11:49:17;;;;;;;;;;;;;;;20.58;51.81;99592.28;4944118;28;2370;-67
2023/04/01 11:52:30;;;;;;;;;;;;;;;20.63;51.56;99588.81;4946248;28;2482;-66
2023/04/01 11:55:16;;;;;;;;;;;;;;;20.58;51.84;99589.41;4911037;28;2790;-71
2023/04/01 11:57:45;;;;;;;;;;;;;;;20.67;51.73;99599.69;4938801;28;2705;-67
2023/04/01 12:00:16;;;;;;;;;;;;;;;20.66;51.91;99601.09;4936714;28;2687;-67
2023/04/01 12:03:00;;;;;;;;;;;;;;;20.74;51.95;99601.31;4933722;28;2647;-67
2023/04/01 12:05:33;;;;;;;;;;;;;;;20.95;52.68;99607.56;4932958;28;2850;-68
2023/04/01 12:08:15;;;;;;;;;;;;;;;21.00;52.29;99612.00;4932731;28;2780;-67
2023/04/01 12:10:46;;;;;;;;;;;;;;;20.88;52.04;99616.03;4930645;28;3234;-69
2023/04/01 12:13:22;;;;;;;;;;;;;;;20.90;53.27;99613.22;4937501;28;2658;-66
2023/04/01 12:15:51;;;;;;;;;;;;;;;21.02;52.41;99623.56;4942164;28;2816;-65
2023/04/01 12:18:24;;;;;;;;;;;;;;;21.04;52.25;99618.56;4930425;28;2875;-66
2023/04/01 12:20:53;;;;;;;;;;;;;;;21.03;52.24;99619.28;4938207;28;2745;-67
2023/04/01 12:23:38;;;;;;;;;;;;;;;21.64;52.08;99626.41;4938265;28;2802;-66
2023/04/01 12:26:15;;;;;;;;;;;;;;;21.85;50.89;99623.97;4941001;28;2781;-69
2023/04/01 12:28:45;;;;;;;;;;;;;;;21.91;50.68;99629.88;4931899;28;2891;-69
2023/04/01 12:31:29;;;;;;;;;;;;;;;21.95;50.45;99632.84;4933550;28;2755;-69
2023/04/01 12:34:15;;;;;;;;;;;;;;;21.91;50.50;99635.63;4934684;28;2658;-71
2023/04/01 12:36:47;;;;;;;;;;;;;;;21.85;50.04;99639.13;4936478;28;2744;-71
2023/04/01 12:39:22;;;;;;;;;;;;;;;21.56;51.36;99642.81;4933808;28;2750;-73
2023/04/01 12:41:53;;;;;;;;;;;;;;;21.50;51.04;99634.75;4943408;28;2678;-73
2023/04/01 12:44:35;;;;;;;;;;;;;;;21.57;50.95;99642.13;4939787;28;2793;-71
2023/04/01 12:47:20;;;;;;;;;;;;;;;21.73;50.73;99645.34;4935440;28;4144;-64
2023/04/01 12:49:49;;;;;;;;;;;;;;;21.83;50.43;99655.63;4936835;28;2906;-65
2023/04/01 12:52:15;;;;;;;;;;;;;;;21.66;51.14;99658.16;4941650;28;2840;-68
2023/04/01 12:54:48;;;;;;;;;;;;;;;21.64;50.71;99657.38;4943571;28;3470;-69
2023/04/01 12:57:21;;;;;;;;;;;;;;;21.50;50.62;99670.03;4938772;28;2951;-70
2023/04/01 12:59:58;;;;;;;;;;;;;;;21.50;50.67;99669.31;4934588;28;3038;-75
2023/04/01 13:02:30;;;;;;;;;;;;;;;21.61;50.58;99678.94;4933307;28;4829;-72
2023/04/01 13:05:00;;;;;;;;;;;;;;;21.66;50.33;99672.56;4943007;28;2923;-72
2023/04/01 13:07:39;;;;;;;;;;;;;;;21.94;50.42;99677.47;4943926;28;4537;-68
2023/04/01 13:10:20;;;;;;;;;;;;;;;22.14;49.61;99685.81;4944559;28;2963;-69
2023/04/01 13:12:51;;;;;;;;;;;;;;;21.98;50.19;99683.31;4943144;28;3152;-68
2023/04/01 13:15:17;;;;;;;;;;;;;;;22.06;50.24;99695.03;4941272;28;2947;-69
2023/04/01 13:17:54;;;;;;;;;;;;;;;22.07;49.93;99698.66;4942646;28;2875;-68
2023/04/01 13:20:26;;;;;;;;;;;;;;;22.06;50.01;99702.94;4945529;28;2930;-64
2023/04/01 13:23:02;;;;;;;;;;;;;;;21.94;49.37;99701.28;4945343;28;2867;-67
2023/04/01 13:25:39;;;;;;;;;;;;;;;21.85;49.83;99690.25;4940643;28;2831;-72
2023/04/01 13:28:15;;;;;;;;;;;;;;;21.79;49.79;99716.06;4938624;28;2892;-65
2023/04/01 13:31:03;;;;;;;;;;;;;;;21.60;50.08;99707.00;4931995;28;2738;-68
2023/04/01 13:33:41;;;;;;;;;;;;;;;21.46;50.30;99713.16;4929619;28;2728;-68
2023/04/01 13:36:13;;;;;;;;;;;;;;;21.43;50.69;99713.78;4936916;28;2822;-68